createdAt,value
2017-07-28T00:00:36.661Z,22.4
2017-07-28T00:01:17.717Z,23.4
2017-07-28T00:01:58.789Z,26.5
2017-07-28T00:02:39.849Z,24.9
2017-07-28T00:03:20.814Z,23.8
2017-07-28T00:04:01.780Z,22.6
2017-07-28T00:04:42.847Z,22.9
2017-07-28T00:05:24.012Z,22.2
2017-07-28T00:06:04.983Z,23.9
2017-07-28T00:06:46.050Z,25.0
2017-07-28T00:07:27.110Z,31.0
2017-07-28T00:08:08.184Z,25.0
2017-07-28T00:08:49.251Z,26.1
2017-07-28T00:09:30.418Z,20.4
2017-07-28T00:10:11.385Z,21.7
2017-07-28T00:10:52.446Z,21.8
2017-07-28T00:11:33.422Z,26.8
2017-07-28T00:12:14.485Z,30.1
2017-07-28T00:12:55.561Z,28.7
2017-07-28T00:13:36.622Z,28.2
2017-07-28T00:14:17.594Z,27.0
2017-07-28T00:14:58.771Z,27.2
2017-07-28T00:15:39.733Z,33.4
2017-07-28T00:16:20.797Z,26.6
2017-07-28T00:17:01.759Z,26.6
2017-07-28T00:17:42.835Z,28.2
2017-07-28T00:18:23.797Z,29.4
2017-07-28T00:19:04.974Z,33.4
2017-07-28T00:19:45.962Z,29.8
2017-07-28T00:20:26.923Z,28.2
2017-07-28T00:21:07.794Z,26.7
2017-07-28T00:21:48.858Z,20.0
2017-07-28T00:22:30.136Z,30.2
2017-07-28T00:23:11.294Z,30.8
2017-07-28T00:23:52.158Z,25.1
2017-07-28T00:24:33.838Z,24.9
2017-07-28T00:25:14.900Z,25.8
2017-07-28T00:25:55.866Z,25.7
2017-07-28T00:26:37.148Z,31.0
2017-07-28T00:27:18.212Z,31.4
2017-07-28T00:27:59.180Z,29.4
2017-07-28T00:28:40.249Z,27.1
2017-07-28T00:29:21.422Z,27.9
2017-07-28T00:30:02.392Z,31.0
2017-07-28T00:30:43.468Z,28.9
2017-07-28T00:31:24.536Z,27.5
2017-07-28T00:32:05.716Z,25.6
2017-07-28T00:32:46.782Z,33.1
2017-07-28T00:33:27.756Z,34.7
2017-07-28T00:34:08.725Z,34.3
2017-07-28T00:34:49.796Z,28.1
2017-07-28T00:35:30.870Z,25.7
2017-07-28T00:36:11.929Z,24.7
2017-07-28T00:36:52.892Z,23.0
2017-07-28T00:37:34.066Z,25.4
2017-07-28T00:38:15.032Z,33.4
2017-07-28T00:38:56.004Z,24.9
2017-07-28T00:39:37.171Z,25.1
2017-07-28T00:40:18.260Z,25.9
2017-07-28T00:40:59.222Z,31.4
2017-07-28T00:41:40.296Z,25.7
2017-07-28T00:42:21.357Z,28.6
2017-07-28T00:43:02.332Z,24.2
2017-07-28T00:43:43.504Z,25.5
2017-07-28T00:44:24.659Z,21.4
2017-07-28T00:45:05.630Z,22.4
2017-07-28T00:45:46.799Z,24.0
2017-07-28T00:46:27.878Z,30.7
2017-07-28T00:47:08.941Z,25.6
2017-07-28T00:47:50.003Z,24.4
2017-07-28T00:48:31.076Z,25.6
2017-07-28T00:49:12.137Z,26.0
2017-07-28T00:49:53.218Z,27.6
2017-07-28T00:50:34.380Z,27.0
2017-07-28T00:51:15.450Z,26.9
2017-07-28T00:51:56.514Z,31.7
2017-07-28T00:52:37.673Z,29.8
2017-07-28T00:53:18.641Z,23.5
2017-07-28T00:53:59.704Z,25.9
2017-07-28T00:54:40.682Z,21.8
2017-07-28T00:55:21.844Z,23.6
2017-07-28T00:56:02.914Z,26.6
2017-07-28T00:56:43.882Z,25.1
2017-07-28T00:57:24.843Z,25.6
2017-07-28T00:58:05.914Z,27.6
2017-07-28T00:58:46.985Z,26.1
2017-07-28T00:59:27.963Z,22.6
2017-07-28T01:00:08.928Z,26.1
2017-07-28T01:00:49.903Z,27.8
2017-07-28T01:01:30.875Z,28.1
2017-07-28T01:02:11.843Z,30.7
2017-07-28T01:02:53.010Z,35.3
2017-07-28T01:03:34.088Z,32.2
2017-07-28T01:04:15.258Z,22.7
2017-07-28T01:04:56.763Z,27.6
2017-07-28T01:05:37.829Z,30.9
2017-07-28T01:06:19.102Z,28.5
2017-07-28T01:07:00.161Z,27.4
2017-07-28T01:07:41.318Z,32.4
2017-07-28T01:08:22.586Z,29.1
2017-07-28T01:09:03.557Z,21.8
2017-07-28T01:09:44.621Z,26.1
2017-07-28T01:10:25.595Z,27.5
2017-07-28T01:11:06.560Z,26.0
2017-07-28T01:11:47.529Z,25.0
2017-07-28T01:12:28.689Z,25.4
2017-07-28T01:13:09.659Z,26.9
2017-07-28T01:13:50.732Z,31.8
2017-07-28T01:14:31.794Z,29.8
2017-07-28T01:15:13.063Z,24.8
2017-07-28T01:15:54.030Z,25.9
2017-07-28T01:16:35.196Z,26.0
2017-07-28T01:17:16.363Z,27.2
2017-07-28T01:18:04.217Z,26.3
2017-07-28T01:18:45.192Z,22.3
2017-07-28T01:19:26.257Z,25.0
2017-07-28T01:20:07.431Z,25.3
2017-07-28T01:20:48.601Z,29.6
2017-07-28T01:21:29.673Z,25.8
2017-07-28T01:22:10.743Z,23.9
2017-07-28T01:22:51.806Z,30.6
2017-07-28T01:23:32.970Z,29.4
2017-07-28T01:24:13.930Z,28.8
2017-07-28T01:24:54.998Z,31.1
2017-07-28T01:25:36.167Z,27.2
2017-07-28T01:26:17.135Z,24.0
2017-07-28T01:26:58.407Z,23.7
2017-07-28T01:27:39.572Z,27.0
2017-07-28T01:28:20.548Z,30.1
2017-07-28T01:29:01.601Z,25.3
2017-07-28T01:29:42.773Z,25.1
2017-07-28T01:30:23.837Z,30.6
2017-07-28T01:31:04.811Z,28.0
2017-07-28T01:31:45.973Z,27.4
2017-07-28T01:32:27.034Z,33.3
2017-07-28T01:33:08.001Z,28.8
2017-07-28T01:33:49.064Z,37.8
2017-07-28T01:34:30.139Z,38.9
2017-07-28T01:35:11.299Z,32.4
2017-07-28T01:35:52.375Z,36.6
2017-07-28T01:36:33.342Z,33.6
2017-07-28T01:37:14.310Z,29.3
2017-07-28T01:37:55.382Z,34.2
2017-07-28T01:38:36.352Z,34.1
2017-07-28T01:39:17.428Z,41.1
2017-07-28T01:39:58.397Z,37.1
2017-07-28T01:40:39.465Z,29.9
2017-07-28T01:41:20.538Z,30.5
2017-07-28T01:42:01.597Z,31.6
2017-07-28T01:42:42.979Z,31.2
2017-07-28T01:43:23.957Z,40.3
2017-07-28T01:44:05.031Z,42.9
2017-07-28T01:44:46.104Z,38.4
2017-07-28T01:45:27.075Z,39.1
2017-07-28T01:46:08.146Z,34.5
2017-07-28T01:46:49.221Z,34.9
2017-07-28T01:47:30.402Z,37.1
2017-07-28T01:48:11.371Z,36.5
2017-07-28T01:48:52.344Z,36.7
2017-07-28T01:49:33.311Z,42.3
2017-07-28T01:50:14.280Z,36.3
2017-07-28T01:50:55.246Z,33.8
2017-07-28T01:51:36.214Z,33.9
2017-07-28T01:52:17.188Z,32.4
2017-07-28T01:52:58.164Z,36.7
2017-07-28T01:53:39.239Z,33.4
2017-07-28T01:54:20.209Z,40.9
2017-07-28T01:55:01.188Z,42.8
2017-07-28T01:55:42.257Z,34.9
2017-07-28T01:56:23.328Z,42.4
2017-07-28T01:57:04.403Z,36.6
2017-07-28T01:57:45.578Z,39.6
2017-07-28T01:58:26.547Z,39.4
2017-07-28T01:59:07.735Z,44.1
2017-07-28T01:59:48.690Z,45.8
2017-07-28T02:00:29.769Z,42.7
2017-07-28T02:01:10.935Z,37.7
2017-07-28T02:01:52.108Z,38.3
2017-07-28T02:02:33.173Z,38.8
2017-07-28T02:03:14.246Z,36.9
2017-07-28T02:03:55.407Z,36.8
2017-07-28T02:04:36.480Z,38.1
2017-07-28T02:05:17.453Z,37.4
2017-07-28T02:05:58.421Z,36.8
2017-07-28T02:06:39.297Z,37.6
2017-07-28T02:07:20.358Z,47.2
2017-07-28T02:08:01.427Z,44.8
2017-07-28T02:08:42.403Z,46.7
2017-07-28T02:09:23.574Z,39.2
2017-07-28T02:10:04.655Z,35.8
2017-07-28T02:10:45.658Z,39.4
2017-07-28T02:11:26.733Z,38.7
2017-07-28T02:12:07.805Z,45.5
2017-07-28T02:12:48.876Z,42.8
2017-07-28T02:13:29.856Z,42.8
2017-07-28T02:14:10.913Z,40.9
2017-07-28T02:14:51.992Z,40.1
2017-07-28T02:15:32.963Z,35.4
2017-07-28T02:16:14.042Z,35.5
2017-07-28T02:16:55.006Z,38.7
2017-07-28T02:17:35.986Z,44.4
2017-07-28T02:18:17.161Z,38.5
2017-07-28T02:18:58.227Z,35.1
2017-07-28T02:19:39.201Z,41.0
2017-07-28T02:20:20.170Z,46.8
2017-07-28T02:21:01.249Z,43.7
2017-07-28T02:21:42.220Z,41.4
2017-07-28T02:22:23.392Z,42.8
2017-07-28T02:23:04.457Z,43.5
2017-07-28T02:23:45.535Z,42.7
2017-07-28T02:24:26.608Z,41.7
2017-07-28T02:25:07.685Z,49.2
2017-07-28T02:25:48.856Z,50.1
2017-07-28T02:26:29.921Z,49.8
2017-07-28T02:27:10.895Z,40.4
2017-07-28T02:27:51.865Z,45.1
2017-07-28T02:28:32.836Z,41.2
2017-07-28T02:29:13.810Z,40.8
2017-07-28T02:29:54.989Z,52.2
2017-07-28T02:30:35.963Z,48.8
2017-07-28T02:31:17.040Z,39.9
2017-07-28T02:31:57.913Z,42.3
2017-07-28T02:32:38.889Z,42.1
2017-07-28T02:33:19.869Z,39.8
2017-07-28T02:34:00.947Z,42.2
2017-07-28T02:34:42.027Z,38.1
2017-07-28T02:35:23.003Z,39.5
2017-07-28T02:36:04.875Z,46.4
2017-07-28T02:36:46.063Z,45.5
2017-07-28T02:37:27.240Z,35.8
2017-07-28T02:38:08.122Z,49.4
2017-07-28T02:38:49.299Z,40.1
2017-07-28T02:39:30.276Z,37.2
2017-07-28T02:40:11.258Z,40.3
2017-07-28T02:40:52.434Z,38.2
2017-07-28T02:41:33.413Z,41.6
2017-07-28T02:42:14.581Z,45.2
2017-07-28T02:42:55.667Z,33.1
2017-07-28T02:43:36.847Z,38.7
2017-07-28T02:44:17.830Z,40.1
2017-07-28T02:44:58.911Z,36.9
2017-07-28T02:45:40.287Z,39.6
2017-07-28T02:46:21.361Z,37.7
2017-07-28T02:47:02.340Z,40.6
2017-07-28T02:47:43.324Z,33.6
2017-07-28T02:48:24.397Z,32.7
2017-07-28T02:49:05.273Z,45.8
2017-07-28T02:49:46.269Z,40.4
2017-07-28T02:50:27.345Z,39.8
2017-07-28T02:51:08.418Z,32.3
2017-07-28T02:51:49.389Z,35.8
2017-07-28T02:52:30.476Z,30.0
2017-07-28T02:53:11.360Z,35.0
2017-07-28T02:53:52.631Z,28.2
2017-07-28T02:54:33.612Z,34.5
2017-07-28T02:55:14.682Z,35.0
2017-07-28T02:55:55.960Z,31.8
2017-07-28T02:56:37.536Z,41.3
2017-07-28T02:57:18.619Z,41.1
2017-07-28T02:57:59.797Z,36.0
2017-07-28T02:58:40.869Z,36.4
2017-07-28T02:59:22.048Z,42.0
2017-07-28T03:00:03.321Z,31.2
2017-07-28T03:00:44.297Z,41.3
2017-07-28T03:01:25.276Z,38.2
2017-07-28T03:02:06.453Z,36.5
2017-07-28T03:02:47.429Z,41.2
2017-07-28T03:03:28.601Z,36.9
2017-07-28T03:04:09.686Z,39.5
2017-07-28T03:04:50.551Z,34.8
2017-07-28T03:05:31.834Z,35.3
2017-07-28T03:06:12.912Z,32.2
2017-07-28T03:06:53.997Z,35.2
2017-07-28T03:07:35.067Z,38.6
2017-07-28T03:08:16.145Z,32.2
2017-07-28T03:08:57.127Z,30.8
2017-07-28T03:09:38.101Z,35.0
2017-07-28T03:10:19.073Z,42.1
2017-07-28T03:11:00.050Z,35.0
2017-07-28T03:11:41.128Z,40.2
2017-07-28T03:12:22.306Z,31.5
2017-07-28T03:13:03.406Z,31.2
2017-07-28T03:13:44.489Z,36.5
2017-07-28T03:14:25.362Z,34.4
2017-07-28T03:15:06.654Z,34.0
2017-07-28T03:15:47.725Z,41.7
2017-07-28T03:16:28.814Z,35.1
2017-07-28T03:17:09.697Z,32.7
2017-07-28T03:17:50.868Z,38.6
2017-07-28T03:18:31.950Z,31.0
2017-07-28T03:19:12.915Z,31.2
2017-07-28T03:19:54.011Z,37.2
2017-07-28T03:20:35.292Z,32.0
2017-07-28T03:21:16.465Z,26.3
2017-07-28T03:21:57.445Z,35.1
2017-07-28T03:22:38.420Z,38.2
2017-07-28T03:23:19.500Z,38.8
2017-07-28T03:24:00.576Z,30.3
2017-07-28T03:24:41.664Z,36.0
2017-07-28T03:25:22.537Z,38.7
2017-07-28T03:26:03.717Z,36.1
2017-07-28T03:26:44.890Z,32.1
2017-07-28T03:27:26.363Z,35.9
2017-07-28T03:28:07.348Z,34.8
2017-07-28T03:28:48.420Z,30.1
2017-07-28T03:29:29.504Z,31.2
2017-07-28T03:30:10.483Z,36.4
2017-07-28T03:30:51.560Z,34.1
2017-07-28T03:31:32.736Z,33.1
2017-07-28T03:32:13.808Z,34.3
2017-07-28T03:32:54.892Z,31.2
2017-07-28T03:33:35.865Z,34.8
2017-07-28T03:34:16.950Z,33.1
2017-07-28T03:34:58.028Z,35.2
2017-07-28T03:35:39.001Z,26.8
2017-07-28T03:36:19.981Z,32.3
2017-07-28T03:37:01.160Z,39.4
2017-07-28T03:37:42.135Z,36.6
2017-07-28T03:38:23.207Z,34.3
2017-07-28T03:39:04.196Z,41.3
2017-07-28T03:39:45.280Z,36.6
2017-07-28T03:40:26.359Z,33.1
2017-07-28T03:41:07.347Z,32.6
2017-07-28T03:41:48.529Z,32.9
2017-07-28T03:42:29.606Z,32.5
2017-07-28T03:43:10.679Z,32.6
2017-07-28T03:43:51.761Z,34.8
2017-07-28T03:44:32.739Z,29.3
2017-07-28T03:45:13.820Z,30.0
2017-07-28T03:45:54.897Z,34.4
2017-07-28T03:46:35.974Z,32.2
2017-07-28T03:47:16.952Z,33.2
2017-07-28T03:47:58.240Z,33.7
2017-07-28T03:48:39.121Z,29.6
2017-07-28T03:49:20.196Z,32.4
2017-07-28T03:50:01.181Z,31.5
2017-07-28T03:50:42.160Z,28.6
2017-07-28T03:51:23.134Z,28.6
2017-07-28T03:52:04.116Z,38.1
2017-07-28T03:52:45.095Z,33.2
2017-07-28T03:53:26.280Z,26.3
2017-07-28T03:54:07.168Z,26.7
2017-07-28T03:54:48.448Z,35.5
2017-07-28T03:55:29.425Z,33.0
2017-07-28T03:56:10.296Z,28.9
2017-07-28T03:56:51.991Z,29.1
2017-07-28T03:57:32.962Z,36.4
2017-07-28T03:58:14.235Z,30.5
2017-07-28T03:58:55.113Z,34.8
2017-07-28T03:59:35.994Z,28.0
2017-07-28T04:00:17.072Z,29.8
2017-07-28T04:00:57.949Z,29.6
2017-07-28T04:01:38.839Z,27.6
2017-07-28T04:02:19.715Z,27.3
2017-07-28T04:03:00.595Z,27.7
2017-07-28T04:03:41.772Z,38.5
2017-07-28T04:04:22.851Z,37.0
2017-07-28T04:05:03.835Z,34.6
2017-07-28T04:05:44.816Z,32.5
2017-07-28T04:06:25.938Z,27.3
2017-07-28T04:07:06.822Z,20.5
2017-07-28T04:07:47.910Z,26.5
2017-07-28T04:08:28.881Z,29.5
2017-07-28T04:09:09.961Z,28.6
2017-07-28T04:09:50.942Z,30.6
2017-07-28T04:10:31.823Z,31.3
2017-07-28T04:11:12.713Z,28.6
2017-07-28T04:11:53.691Z,29.4
2017-07-28T04:12:34.671Z,31.0
2017-07-28T04:13:15.552Z,26.4
2017-07-28T04:13:56.436Z,28.6
2017-07-28T04:14:37.316Z,26.8
2017-07-28T04:15:18.297Z,26.4
2017-07-28T04:15:59.385Z,32.6
2017-07-28T04:16:40.360Z,23.8
2017-07-28T04:17:21.339Z,24.2
2017-07-28T04:18:02.442Z,24.3
2017-07-28T04:18:43.422Z,25.1
2017-07-28T04:19:24.506Z,24.7
2017-07-28T04:20:05.581Z,25.6
2017-07-28T04:20:46.677Z,26.8
2017-07-28T04:21:27.653Z,26.0
2017-07-28T04:22:08.530Z,26.3
2017-07-28T04:22:49.409Z,23.4
2017-07-28T04:23:30.398Z,27.9
2017-07-28T04:24:11.271Z,19.0
2017-07-28T04:24:52.247Z,20.6
2017-07-28T04:25:33.231Z,24.3
2017-07-28T04:26:14.211Z,24.3
2017-07-28T04:26:55.101Z,22.8
2017-07-28T04:27:35.978Z,20.7
2017-07-28T04:28:16.961Z,28.1
2017-07-28T04:28:57.847Z,22.3
2017-07-28T04:29:38.724Z,20.2
2017-07-28T04:30:19.607Z,26.7
2017-07-28T04:31:00.599Z,31.9
2017-07-28T04:31:41.562Z,24.4
2017-07-28T04:32:22.548Z,21.0
2017-07-28T04:33:03.525Z,28.4
2017-07-28T04:33:44.515Z,28.8
2017-07-28T04:34:25.695Z,24.2
2017-07-28T04:35:06.779Z,31.2
2017-07-28T04:35:47.757Z,22.1
2017-07-28T04:36:28.637Z,31.4
2017-07-28T04:37:09.721Z,31.0
2017-07-28T04:37:50.598Z,32.4
2017-07-28T04:38:31.679Z,21.3
2017-07-28T04:39:12.757Z,28.9
2017-07-28T04:39:53.752Z,27.1
2017-07-28T04:40:34.827Z,22.3
2017-07-28T04:41:15.812Z,23.7
2017-07-28T04:41:56.799Z,22.3
2017-07-28T04:42:37.779Z,27.8
2017-07-28T04:43:20.357Z,24.3
2017-07-28T04:44:01.338Z,20.4
2017-07-28T04:44:42.325Z,21.7
2017-07-28T04:45:23.306Z,26.7
2017-07-28T04:46:04.389Z,24.1
2017-07-28T04:46:45.268Z,23.0
2017-07-28T04:47:26.249Z,22.5
2017-07-28T04:48:07.332Z,24.6
2017-07-28T04:48:48.317Z,23.5
2017-07-28T04:49:29.398Z,18.1
2017-07-28T04:50:10.383Z,22.9
2017-07-28T04:50:51.470Z,21.5
2017-07-28T04:51:32.454Z,26.4
2017-07-28T04:52:13.334Z,24.6
2017-07-28T04:52:54.316Z,24.1
2017-07-28T04:53:35.397Z,31.8
2017-07-28T04:54:16.378Z,23.5
2017-07-28T04:54:57.460Z,25.8
2017-07-28T04:55:38.439Z,26.7
2017-07-28T04:56:19.320Z,31.2
2017-07-28T04:57:00.395Z,28.4
2017-07-28T04:57:41.377Z,27.6
2017-07-28T04:58:22.461Z,27.0
2017-07-28T04:59:03.451Z,20.6
2017-07-28T04:59:44.525Z,24.1
2017-07-28T05:00:25.510Z,26.9
2017-07-28T05:01:06.610Z,20.4
2017-07-28T05:01:47.797Z,21.2
2017-07-28T05:02:28.967Z,23.5
2017-07-28T05:03:09.943Z,27.9
2017-07-28T05:03:50.930Z,31.2
2017-07-28T05:04:31.905Z,29.3
2017-07-28T05:05:12.794Z,23.0
2017-07-28T05:05:53.980Z,23.4
2017-07-28T05:06:35.168Z,29.5
2017-07-28T05:07:16.350Z,24.7
2017-07-28T05:07:57.331Z,19.5
2017-07-28T05:08:38.221Z,26.0
2017-07-28T05:09:19.296Z,26.5
2017-07-28T05:10:00.278Z,25.9
2017-07-28T05:10:41.159Z,36.9
2017-07-28T05:11:22.245Z,22.4
2017-07-28T05:12:03.330Z,22.7
2017-07-28T05:12:44.311Z,22.2
2017-07-28T05:13:25.203Z,21.4
2017-07-28T05:14:06.270Z,24.6
2017-07-28T05:14:47.572Z,21.5
2017-07-28T05:15:28.648Z,20.6
2017-07-28T05:16:09.738Z,24.9
2017-07-28T05:16:50.815Z,24.0
2017-07-28T05:17:31.789Z,22.5
2017-07-28T05:18:12.777Z,24.2
2017-07-28T05:18:53.756Z,22.7
2017-07-28T05:19:34.835Z,20.7
2017-07-28T05:20:15.919Z,26.9
2017-07-28T05:20:56.899Z,23.8
2017-07-28T05:21:37.877Z,21.1
2017-07-28T05:22:18.858Z,21.4
2017-07-28T05:22:59.836Z,22.0
2017-07-28T05:23:40.985Z,17.4
2017-07-28T05:24:22.526Z,21.9
2017-07-28T05:25:03.716Z,34.0
2017-07-28T05:25:44.796Z,23.8
2017-07-28T05:26:25.780Z,20.5
2017-07-28T05:27:06.860Z,28.4
2017-07-28T05:27:47.946Z,32.2
2017-07-28T05:28:29.029Z,27.2
2017-07-28T05:29:10.109Z,26.2
2017-07-28T05:29:51.290Z,18.3
2017-07-28T05:30:32.266Z,21.2
2017-07-28T05:31:13.553Z,18.7
2017-07-28T05:31:54.623Z,20.9
2017-07-28T05:32:36.113Z,26.1
2017-07-28T05:33:17.100Z,25.0
2017-07-28T05:33:58.285Z,22.3
2017-07-28T05:34:39.269Z,26.0
2017-07-28T05:35:20.349Z,23.5
2017-07-28T05:36:01.341Z,24.8
2017-07-28T05:36:42.430Z,22.5
2017-07-28T05:37:23.613Z,21.8
2017-07-28T05:38:04.599Z,28.0
2017-07-28T05:38:45.586Z,27.6
2017-07-28T05:39:26.672Z,24.8
2017-07-28T05:40:07.772Z,21.5
2017-07-28T05:40:48.874Z,23.5
2017-07-28T05:41:29.857Z,16.4
2017-07-28T05:42:10.941Z,17.2
2017-07-28T05:42:51.925Z,22.1
2017-07-28T05:43:33.011Z,28.6
2017-07-28T05:44:14.095Z,29.8
2017-07-28T05:44:55.177Z,23.4
2017-07-28T05:45:36.268Z,25.3
2017-07-28T05:46:17.354Z,25.4
2017-07-28T05:46:58.344Z,26.6
2017-07-28T05:47:39.422Z,27.7
2017-07-28T05:48:20.507Z,26.6
2017-07-28T05:49:01.587Z,24.5
2017-07-28T05:49:42.587Z,21.6
2017-07-28T05:50:23.460Z,20.8
2017-07-28T05:51:04.638Z,33.2
2017-07-28T05:51:45.620Z,32.4
2017-07-28T05:52:26.915Z,35.5
2017-07-28T05:53:07.997Z,24.6
2017-07-28T05:53:49.089Z,26.8
2017-07-28T05:54:30.172Z,21.6
2017-07-28T05:55:11.266Z,18.7
2017-07-28T05:55:52.452Z,20.7
2017-07-28T05:56:33.438Z,21.5
2017-07-28T05:57:14.510Z,16.4
2017-07-28T05:57:55.410Z,25.3
2017-07-28T05:58:36.494Z,19.2
2017-07-28T05:59:17.640Z,21.1
2017-07-28T05:59:58.722Z,24.1
2017-07-28T06:00:39.610Z,23.6
2017-07-28T06:01:20.599Z,26.4
2017-07-28T06:02:01.593Z,19.7
2017-07-28T06:02:42.777Z,23.4
2017-07-28T06:03:23.860Z,19.9
2017-07-28T06:04:04.851Z,20.0
2017-07-28T06:04:45.835Z,18.0
2017-07-28T06:05:27.020Z,24.7
2017-07-28T06:06:08.115Z,19.1
2017-07-28T06:06:49.296Z,23.0
2017-07-28T06:07:30.383Z,22.0
2017-07-28T06:08:11.468Z,19.9
2017-07-28T06:08:52.571Z,29.4
2017-07-28T06:09:33.556Z,25.4
2017-07-28T06:10:14.634Z,23.9
2017-07-28T06:10:55.613Z,28.8
2017-07-28T06:11:36.585Z,25.9
2017-07-28T06:12:17.568Z,23.1
2017-07-28T06:12:58.548Z,18.4
2017-07-28T06:13:39.541Z,18.1
2017-07-28T06:14:20.624Z,19.9
2017-07-28T06:15:01.802Z,19.2
2017-07-28T06:15:42.796Z,23.8
2017-07-28T06:16:23.780Z,24.9
2017-07-28T06:17:04.670Z,22.3
2017-07-28T06:17:45.750Z,23.0
2017-07-28T06:18:26.737Z,21.5
2017-07-28T06:19:07.725Z,23.5
2017-07-28T06:19:48.714Z,21.9
2017-07-28T06:20:29.699Z,22.7
2017-07-28T06:21:10.687Z,18.8
2017-07-28T06:21:51.666Z,19.8
2017-07-28T06:22:32.857Z,17.9
2017-07-28T06:23:13.837Z,19.0
2017-07-28T06:23:54.824Z,21.2
2017-07-28T06:24:36.007Z,23.9
2017-07-28T06:25:17.095Z,15.5
2017-07-28T06:25:58.181Z,24.4
2017-07-28T06:26:39.269Z,29.8
2017-07-28T06:27:20.254Z,24.2
2017-07-28T06:28:01.235Z,22.1
2017-07-28T06:28:42.221Z,22.7
2017-07-28T06:29:23.199Z,15.7
2017-07-28T06:30:04.401Z,16.7
2017-07-28T06:30:45.584Z,20.5
2017-07-28T06:31:26.672Z,20.9
2017-07-28T06:32:07.955Z,21.7
2017-07-28T06:32:50.544Z,19.1
2017-07-28T06:33:31.638Z,18.0
2017-07-28T06:34:12.624Z,23.9
2017-07-28T06:34:53.610Z,25.0
2017-07-28T06:35:34.588Z,22.8
2017-07-28T06:36:15.676Z,20.1
2017-07-28T06:36:56.761Z,23.7
2017-07-28T06:37:37.749Z,22.4
2017-07-28T06:38:18.945Z,20.8
2017-07-28T06:39:00.030Z,19.7
2017-07-28T06:39:41.222Z,26.5
2017-07-28T06:40:22.304Z,27.6
2017-07-28T06:41:03.589Z,23.2
2017-07-28T06:41:44.580Z,26.5
2017-07-28T06:42:25.664Z,22.5
2017-07-28T06:43:06.651Z,17.7
2017-07-28T06:43:47.733Z,22.0
2017-07-28T06:44:28.830Z,21.5
2017-07-28T06:45:09.913Z,24.4
2017-07-28T06:45:51.001Z,28.0
2017-07-28T06:46:32.085Z,29.4
2017-07-28T06:47:13.178Z,25.5
2017-07-28T06:47:54.166Z,27.7
2017-07-28T06:48:35.149Z,23.3
2017-07-28T06:49:16.243Z,27.2
2017-07-28T06:49:57.230Z,27.5
2017-07-28T06:50:38.322Z,19.9
2017-07-28T06:51:19.417Z,22.7
2017-07-28T06:52:00.491Z,27.2
2017-07-28T06:52:41.679Z,31.9
2017-07-28T06:53:22.667Z,25.8
2017-07-28T06:54:03.756Z,28.4
2017-07-28T06:54:44.740Z,28.4
2017-07-28T06:55:25.734Z,27.7
2017-07-28T06:56:06.734Z,24.9
2017-07-28T06:56:48.026Z,29.5
2017-07-28T06:57:28.920Z,23.6
2017-07-28T06:58:10.007Z,20.8
2017-07-28T06:58:51.096Z,24.2
2017-07-28T06:59:32.075Z,25.7
2017-07-28T07:00:13.267Z,29.0
2017-07-28T07:00:54.449Z,27.1
2017-07-28T07:01:35.436Z,28.7
2017-07-28T07:02:16.727Z,27.0
2017-07-28T07:02:57.913Z,27.1
2017-07-28T07:03:38.909Z,24.0
2017-07-28T07:04:19.891Z,22.1
2017-07-28T07:05:00.889Z,26.9
2017-07-28T07:05:42.088Z,26.7
2017-07-28T07:06:23.072Z,35.1
2017-07-28T07:07:04.196Z,27.4
2017-07-28T07:07:45.177Z,26.2
2017-07-28T07:08:26.367Z,30.8
2017-07-28T07:09:07.347Z,28.2
2017-07-28T07:09:48.541Z,22.6
2017-07-28T07:10:29.535Z,26.8
2017-07-28T07:11:11.271Z,24.3
2017-07-28T07:11:53.084Z,25.0
2017-07-28T07:12:34.750Z,18.8
2017-07-28T07:13:15.755Z,26.3
2017-07-28T07:13:56.941Z,37.0
2017-07-28T07:14:38.031Z,32.7
2017-07-28T07:15:19.118Z,22.8
2017-07-28T07:16:00.105Z,27.8
2017-07-28T07:16:41.189Z,26.4
2017-07-28T07:17:22.281Z,25.0
2017-07-28T07:18:03.380Z,23.5
2017-07-28T07:18:44.465Z,25.4
2017-07-28T07:19:25.547Z,25.7
2017-07-28T07:20:06.625Z,25.4
2017-07-28T07:20:47.618Z,30.2
2017-07-28T07:21:29.011Z,30.5
2017-07-28T07:22:09.994Z,30.1
2017-07-28T07:22:51.184Z,26.2
2017-07-28T07:23:32.089Z,34.4
2017-07-28T07:24:13.252Z,27.4
2017-07-28T07:24:54.244Z,27.9
2017-07-28T07:25:35.236Z,26.7
2017-07-28T07:26:16.217Z,23.6
2017-07-28T07:26:57.402Z,25.2
2017-07-28T07:27:38.385Z,30.1
2017-07-28T07:28:19.465Z,30.1
2017-07-28T07:29:00.461Z,22.3
2017-07-28T07:29:41.546Z,25.1
2017-07-28T07:30:22.630Z,30.6
2017-07-28T07:31:03.712Z,31.4
2017-07-28T07:31:44.900Z,29.9
2017-07-28T07:32:26.107Z,25.9
2017-07-28T07:33:07.201Z,23.0
2017-07-28T07:33:48.289Z,24.3
2017-07-28T07:34:29.271Z,26.0
2017-07-28T07:35:10.564Z,27.4
2017-07-28T07:35:51.659Z,31.2
2017-07-28T07:36:32.845Z,30.7
2017-07-28T07:37:13.940Z,25.9
2017-07-28T07:37:55.021Z,28.6
2017-07-28T07:38:36.011Z,24.6
2017-07-28T07:39:17.298Z,29.2
2017-07-28T07:39:58.380Z,35.1
2017-07-28T07:40:39.371Z,30.4
2017-07-28T07:41:20.352Z,25.1
2017-07-28T07:42:01.464Z,22.9
2017-07-28T07:42:42.543Z,21.0
2017-07-28T07:43:23.533Z,22.6
2017-07-28T07:44:04.609Z,27.1
2017-07-28T07:44:45.490Z,32.5
2017-07-28T07:45:26.693Z,23.3
2017-07-28T07:46:07.559Z,28.7
2017-07-28T07:46:49.262Z,31.2
2017-07-28T07:47:30.246Z,30.7
2017-07-28T07:48:11.242Z,28.8
2017-07-28T07:48:52.325Z,26.9
2017-07-28T07:49:33.310Z,23.7
2017-07-28T07:50:14.289Z,28.8
2017-07-28T07:50:55.273Z,33.2
2017-07-28T07:51:36.364Z,23.6
2017-07-28T07:52:17.450Z,29.1
2017-07-28T07:52:58.357Z,30.0
2017-07-28T07:53:39.444Z,28.6
2017-07-28T07:54:20.426Z,32.8
2017-07-28T07:55:01.415Z,32.1
2017-07-28T07:55:42.601Z,25.2
2017-07-28T07:56:23.787Z,30.4
2017-07-28T07:57:04.866Z,32.0
2017-07-28T07:57:45.955Z,26.5
2017-07-28T07:58:27.036Z,27.5
2017-07-28T07:59:08.019Z,31.7
2017-07-28T07:59:49.111Z,24.2
2017-07-28T08:00:30.192Z,25.1
2017-07-28T08:01:11.284Z,24.2
2017-07-28T08:01:52.370Z,23.7
2017-07-28T08:02:33.456Z,24.9
2017-07-28T08:03:14.435Z,26.7
2017-07-28T08:03:55.424Z,20.4
2017-07-28T08:04:36.413Z,21.8
2017-07-28T08:05:17.502Z,30.5
2017-07-28T08:05:58.593Z,28.8
2017-07-28T08:06:39.679Z,26.2
2017-07-28T08:07:20.667Z,26.3
2017-07-28T08:08:01.644Z,26.0
2017-07-28T08:08:42.741Z,28.7
2017-07-28T08:09:23.731Z,31.1
2017-07-28T08:10:04.715Z,28.7
2017-07-28T08:10:45.805Z,26.5
2017-07-28T08:11:26.797Z,24.3
2017-07-28T08:12:07.987Z,21.9
2017-07-28T08:12:49.180Z,24.8
2017-07-28T08:13:30.368Z,22.0
2017-07-28T08:14:11.353Z,34.5
2017-07-28T08:14:53.292Z,32.6
2017-07-28T08:15:34.176Z,28.7
2017-07-28T08:16:15.257Z,31.3
2017-07-28T08:16:56.353Z,26.8
2017-07-28T08:17:37.531Z,27.0
2017-07-28T08:18:18.621Z,24.7
2017-07-28T08:18:59.606Z,25.8
2017-07-28T08:19:40.692Z,24.4
2017-07-28T08:20:21.680Z,21.8
2017-07-28T08:21:02.664Z,22.0
2017-07-28T08:21:43.752Z,23.7
2017-07-28T08:22:24.841Z,28.3
2017-07-28T08:23:05.933Z,35.8
2017-07-28T08:23:47.112Z,28.9
2017-07-28T08:24:28.102Z,23.9
2017-07-28T08:25:09.199Z,27.0
2017-07-28T08:25:50.305Z,30.0
2017-07-28T08:26:31.299Z,30.4
2017-07-28T08:27:12.381Z,21.9
2017-07-28T08:27:53.370Z,22.5
2017-07-28T08:28:34.559Z,19.2
2017-07-28T08:29:15.547Z,24.1
2017-07-28T08:29:56.646Z,28.2
2017-07-28T08:30:37.822Z,23.6
2017-07-28T08:31:18.910Z,21.3
2017-07-28T08:31:59.893Z,22.2
2017-07-28T08:32:40.885Z,32.2
2017-07-28T08:33:21.970Z,30.7
2017-07-28T08:34:02.960Z,30.4
2017-07-28T08:34:44.049Z,28.3
2017-07-28T08:35:25.030Z,29.4
2017-07-28T08:36:06.124Z,31.5
2017-07-28T08:36:47.205Z,27.6
2017-07-28T08:37:28.195Z,24.9
2017-07-28T08:38:09.182Z,23.3
2017-07-28T08:38:50.180Z,19.3
2017-07-28T08:39:31.372Z,35.1
2017-07-28T08:40:12.454Z,31.3
2017-07-28T08:40:53.648Z,23.1
2017-07-28T08:41:34.728Z,25.6
2017-07-28T08:42:15.720Z,22.0
2017-07-28T08:42:56.812Z,20.7
2017-07-28T08:43:37.896Z,22.6
2017-07-28T08:44:19.084Z,22.9
2017-07-28T08:45:00.171Z,27.5
2017-07-28T08:45:41.164Z,24.0
2017-07-28T08:46:22.247Z,25.4
2017-07-28T08:47:03.436Z,21.3
2017-07-28T08:47:44.432Z,23.7
2017-07-28T08:48:25.409Z,22.4
2017-07-28T08:49:06.395Z,26.5
2017-07-28T08:49:47.474Z,27.2
2017-07-28T08:50:28.460Z,16.0
2017-07-28T08:51:09.473Z,18.0
2017-07-28T08:51:50.564Z,24.3
2017-07-28T08:52:31.553Z,20.7
2017-07-28T08:53:12.547Z,25.1
2017-07-28T08:53:53.440Z,28.1
2017-07-28T08:54:34.424Z,22.2
2017-07-28T08:55:15.516Z,24.1
2017-07-28T08:55:56.506Z,23.7
2017-07-28T08:56:37.901Z,25.7
2017-07-28T08:57:18.992Z,26.5
2017-07-28T08:58:00.077Z,21.2
2017-07-28T08:58:41.066Z,21.5
2017-07-28T08:59:22.249Z,21.4
2017-07-28T09:00:03.238Z,21.9
2017-07-28T09:00:44.427Z,24.1
2017-07-28T09:01:25.544Z,18.2
2017-07-28T09:02:06.515Z,19.3
2017-07-28T09:02:47.508Z,20.7
2017-07-28T09:03:28.522Z,20.0
2017-07-28T09:04:09.615Z,19.0
2017-07-28T09:04:50.813Z,18.1
2017-07-28T09:05:31.808Z,18.8
2017-07-28T09:06:12.998Z,24.9
2017-07-28T09:06:53.984Z,29.8